sensor_id;sensor_type;location;lat;lon;timestamp;P1;durP1;ratioP1;P2;durP2;ratioP2
11283;SDS011;5698;47.332;11.180;2022-12-18T00:00:58;17.47;;;12.00;;
11283;SDS011;5698;47.332;11.180;2022-12-18T00:03:25;15.13;;;11.77;;
11283;SDS011;5698;47.332;11.180;2022-12-18T00:05:52;14.77;;;11.77;;
11283;SDS011;5698;47.332;11.180;2022-12-18T00:08:19;19.30;;;12.90;;
11283;SDS011;5698;47.332;11.180;2022-12-18T00:10:48;18.90;;;13.70;;
11283;SDS011;5698;47.332;11.180;2022-12-18T00:13:15;17.13;;;12.53;;
11283;SDS011;5698;47.332;11.180;2022-12-18T00:15:42;15.87;;;12.00;;
11283;SDS011;5698;47.332;11.180;2022-12-18T00:18:09;16.40;;;12.10;;
11283;SDS011;5698;47.332;11.180;2022-12-18T00:20:36;16.23;;;12.20;;
11283;SDS011;5698;47.332;11.180;2022-12-18T00:23:04;17.93;;;11.83;;
11283;SDS011;5698;47.332;11.180;2022-12-18T00:25:32;15.27;;;11.10;;
11283;SDS011;5698;47.332;11.180;2022-12-18T00:28:02;16.20;;;10.73;;
11283;SDS011;5698;47.332;11.180;2022-12-18T00:30:29;12.73;;;10.17;;
11283;SDS011;5698;47.332;11.180;2022-12-18T00:32:57;11.73;;;9.90;;
11283;SDS011;5698;47.332;11.180;2022-12-18T00:35:24;10.80;;;8.40;;
11283;SDS011;5698;47.332;11.180;2022-12-18T00:37:51;11.00;;;9.00;;
11283;SDS011;5698;47.332;11.180;2022-12-18T00:40:18;10.30;;;8.40;;
11283;SDS011;5698;47.332;11.180;2022-12-18T00:42:45;11.50;;;9.20;;
11283;SDS011;5698;47.332;11.180;2022-12-18T00:45:24;10.73;;;8.33;;
11283;SDS011;5698;47.332;11.180;2022-12-18T00:47:52;12.90;;;8.33;;
11283;SDS011;5698;47.332;11.180;2022-12-18T00:50:20;9.37;;;7.33;;
11283;SDS011;5698;47.332;11.180;2022-12-18T00:52:47;11.60;;;8.37;;
11283;SDS011;5698;47.332;11.180;2022-12-18T00:55:14;15.93;;;7.70;;
11283;SDS011;5698;47.332;11.180;2022-12-18T00:57:42;8.50;;;6.63;;
11283;SDS011;5698;47.332;11.180;2022-12-18T01:00:10;9.17;;;6.80;;
11283;SDS011;5698;47.332;11.180;2022-12-18T01:02:40;10.47;;;7.37;;
11283;SDS011;5698;47.332;11.180;2022-12-18T01:05:08;11.00;;;7.83;;
11283;SDS011;5698;47.332;11.180;2022-12-18T01:07:36;10.23;;;7.80;;
11283;SDS011;5698;47.332;11.180;2022-12-18T01:10:04;9.30;;;7.17;;
11283;SDS011;5698;47.332;11.180;2022-12-18T01:12:32;7.80;;;6.23;;
11283;SDS011;5698;47.332;11.180;2022-12-18T01:14:59;10.03;;;7.40;;
11283;SDS011;5698;47.332;11.180;2022-12-18T01:17:26;10.80;;;6.77;;
11283;SDS011;5698;47.332;11.180;2022-12-18T01:19:55;7.80;;;5.80;;
11283;SDS011;5698;47.332;11.180;2022-12-18T01:22:22;7.20;;;5.67;;
11283;SDS011;5698;47.332;11.180;2022-12-18T01:24:49;7.17;;;5.60;;
11283;SDS011;5698;47.332;11.180;2022-12-18T01:27:16;6.97;;;5.30;;
11283;SDS011;5698;47.332;11.180;2022-12-18T01:29:43;7.77;;;5.87;;
11283;SDS011;5698;47.332;11.180;2022-12-18T01:32:10;7.83;;;5.77;;
11283;SDS011;5698;47.332;11.180;2022-12-18T01:34:37;8.40;;;5.90;;
11283;SDS011;5698;47.332;11.180;2022-12-18T01:37:05;7.43;;;5.23;;
11283;SDS011;5698;47.332;11.180;2022-12-18T01:39:32;6.43;;;5.40;;
11283;SDS011;5698;47.332;11.180;2022-12-18T01:42:00;6.97;;;5.33;;
11283;SDS011;5698;47.332;11.180;2022-12-18T01:47:38;6.70;;;5.30;;
11283;SDS011;5698;47.332;11.180;2022-12-18T01:50:09;8.27;;;5.23;;
11283;SDS011;5698;47.332;11.180;2022-12-18T01:52:40;6.50;;;5.17;;
11283;SDS011;5698;47.332;11.180;2022-12-18T01:55:08;6.80;;;5.27;;
11283;SDS011;5698;47.332;11.180;2022-12-18T01:57:37;7.63;;;6.00;;
11283;SDS011;5698;47.332;11.180;2022-12-18T02:00:06;7.83;;;5.67;;
11283;SDS011;5698;47.332;11.180;2022-12-18T02:02:35;7.50;;;5.47;;
11283;SDS011;5698;47.332;11.180;2022-12-18T02:05:02;8.07;;;5.37;;
11283;SDS011;5698;47.332;11.180;2022-12-18T02:07:32;7.47;;;4.97;;
11283;SDS011;5698;47.332;11.180;2022-12-18T02:10:12;7.73;;;5.03;;
11283;SDS011;5698;47.332;11.180;2022-12-18T02:12:45;6.83;;;5.33;;
11283;SDS011;5698;47.332;11.180;2022-12-18T02:15:16;4.83;;;4.20;;
11283;SDS011;5698;47.332;11.180;2022-12-18T02:17:52;9.20;;;4.40;;
11283;SDS011;5698;47.332;11.180;2022-12-18T02:20:23;5.20;;;4.30;;
11283;SDS011;5698;47.332;11.180;2022-12-18T02:23:01;6.23;;;4.53;;
11283;SDS011;5698;47.332;11.180;2022-12-18T02:25:40;6.37;;;4.50;;
11283;SDS011;5698;47.332;11.180;2022-12-18T02:28:25;5.77;;;4.37;;
11283;SDS011;5698;47.332;11.180;2022-12-18T02:30:57;6.03;;;4.10;;
11283;SDS011;5698;47.332;11.180;2022-12-18T02:33:27;4.93;;;3.97;;
11283;SDS011;5698;47.332;11.180;2022-12-18T02:35:56;6.00;;;4.17;;
11283;SDS011;5698;47.332;11.180;2022-12-18T02:38:24;5.97;;;4.03;;
11283;SDS011;5698;47.332;11.180;2022-12-18T02:40:52;6.00;;;3.93;;
11283;SDS011;5698;47.332;11.180;2022-12-18T02:43:20;4.83;;;3.90;;
11283;SDS011;5698;47.332;11.180;2022-12-18T02:45:50;5.83;;;4.30;;
11283;SDS011;5698;47.332;11.180;2022-12-18T02:48:20;6.40;;;3.83;;
11283;SDS011;5698;47.332;11.180;2022-12-18T02:50:52;6.43;;;4.30;;
11283;SDS011;5698;47.332;11.180;2022-12-18T02:53:27;4.97;;;3.70;;
11283;SDS011;5698;47.332;11.180;2022-12-18T02:56:02;6.60;;;3.70;;
11283;SDS011;5698;47.332;11.180;2022-12-18T02:58:33;4.67;;;3.87;;
11283;SDS011;5698;47.332;11.180;2022-12-18T03:01:09;4.50;;;3.50;;
11283;SDS011;5698;47.332;11.180;2022-12-18T03:03:39;4.23;;;3.40;;
11283;SDS011;5698;47.332;11.180;2022-12-18T03:06:12;5.73;;;3.50;;
11283;SDS011;5698;47.332;11.180;2022-12-18T03:08:45;7.17;;;3.40;;
11283;SDS011;5698;47.332;11.180;2022-12-18T03:11:15;5.40;;;3.63;;
11283;SDS011;5698;47.332;11.180;2022-12-18T03:14:03;3.40;;;3.07;;
11283;SDS011;5698;47.332;11.180;2022-12-18T03:16:33;6.43;;;3.13;;
11283;SDS011;5698;47.332;11.180;2022-12-18T03:19:03;4.47;;;3.53;;
11283;SDS011;5698;47.332;11.180;2022-12-18T03:21:33;4.57;;;3.27;;
11283;SDS011;5698;47.332;11.180;2022-12-18T03:24:04;4.33;;;3.03;;
11283;SDS011;5698;47.332;11.180;2022-12-18T03:26:34;6.57;;;3.40;;
11283;SDS011;5698;47.332;11.180;2022-12-18T03:29:03;5.23;;;3.53;;
11283;SDS011;5698;47.332;11.180;2022-12-18T03:31:36;4.23;;;2.87;;
11283;SDS011;5698;47.332;11.180;2022-12-18T03:34:09;4.97;;;3.27;;
11283;SDS011;5698;47.332;11.180;2022-12-18T03:36:39;3.10;;;2.80;;
11283;SDS011;5698;47.332;11.180;2022-12-18T03:39:06;3.80;;;3.17;;
11283;SDS011;5698;47.332;11.180;2022-12-18T03:41:35;4.77;;;3.37;;
11283;SDS011;5698;47.332;11.180;2022-12-18T03:44:10;3.20;;;2.77;;
11283;SDS011;5698;47.332;11.180;2022-12-18T03:46:43;4.87;;;3.20;;
11283;SDS011;5698;47.332;11.180;2022-12-18T03:49:17;3.90;;;2.90;;
11283;SDS011;5698;47.332;11.180;2022-12-18T03:51:50;3.13;;;2.70;;
11283;SDS011;5698;47.332;11.180;2022-12-18T03:54:20;4.37;;;2.97;;
11283;SDS011;5698;47.332;11.180;2022-12-18T03:56:50;2.83;;;2.20;;
11283;SDS011;5698;47.332;11.180;2022-12-18T03:59:21;3.43;;;2.90;;
11283;SDS011;5698;47.332;11.180;2022-12-18T04:01:51;3.60;;;2.83;;
11283;SDS011;5698;47.332;11.180;2022-12-18T04:04:23;4.93;;;2.93;;
11283;SDS011;5698;47.332;11.180;2022-12-18T04:06:51;3.07;;;2.47;;
11283;SDS011;5698;47.332;11.180;2022-12-18T04:09:18;3.60;;;2.60;;
11283;SDS011;5698;47.332;11.180;2022-12-18T04:11:46;4.50;;;2.63;;
11283;SDS011;5698;47.332;11.180;2022-12-18T04:14:14;3.23;;;2.77;;
11283;SDS011;5698;47.332;11.180;2022-12-18T04:16:41;2.77;;;2.37;;
11283;SDS011;5698;47.332;11.180;2022-12-18T04:19:09;2.83;;;2.40;;
11283;SDS011;5698;47.332;11.180;2022-12-18T04:21:36;4.03;;;2.70;;
11283;SDS011;5698;47.332;11.180;2022-12-18T04:24:03;4.63;;;2.93;;
11283;SDS011;5698;47.332;11.180;2022-12-18T04:26:31;2.70;;;2.00;;
11283;SDS011;5698;47.332;11.180;2022-12-18T04:28:58;4.23;;;2.20;;
11283;SDS011;5698;47.332;11.180;2022-12-18T04:31:24;2.60;;;2.10;;
11283;SDS011;5698;47.332;11.180;2022-12-18T04:33:52;5.03;;;2.20;;
11283;SDS011;5698;47.332;11.180;2022-12-18T04:36:20;3.07;;;2.23;;
11283;SDS011;5698;47.332;11.180;2022-12-18T04:38:47;3.03;;;2.10;;
11283;SDS011;5698;47.332;11.180;2022-12-18T04:41:14;3.83;;;2.00;;
11283;SDS011;5698;47.332;11.180;2022-12-18T04:43:41;3.00;;;2.10;;
11283;SDS011;5698;47.332;11.180;2022-12-18T04:46:08;2.57;;;2.30;;
11283;SDS011;5698;47.332;11.180;2022-12-18T04:48:36;2.97;;;2.20;;
11283;SDS011;5698;47.332;11.180;2022-12-18T04:51:04;3.00;;;2.10;;
11283;SDS011;5698;47.332;11.180;2022-12-18T04:53:32;2.27;;;1.87;;
11283;SDS011;5698;47.332;11.180;2022-12-18T04:56:06;4.30;;;2.13;;
11283;SDS011;5698;47.332;11.180;2022-12-18T04:58:35;3.43;;;1.97;;
11283;SDS011;5698;47.332;11.180;2022-12-18T05:01:02;1.50;;;1.40;;
11283;SDS011;5698;47.332;11.180;2022-12-18T05:03:30;2.50;;;1.77;;
11283;SDS011;5698;47.332;11.180;2022-12-18T05:05:57;5.50;;;2.10;;
11283;SDS011;5698;47.332;11.180;2022-12-18T05:08:24;2.80;;;2.00;;
11283;SDS011;5698;47.332;11.180;2022-12-18T05:10:59;2.27;;;1.60;;
11283;SDS011;5698;47.332;11.180;2022-12-18T05:13:26;2.50;;;1.87;;
11283;SDS011;5698;47.332;11.180;2022-12-18T05:15:54;1.97;;;1.77;;
11283;SDS011;5698;47.332;11.180;2022-12-18T05:18:21;2.93;;;1.60;;
11283;SDS011;5698;47.332;11.180;2022-12-18T05:20:48;2.40;;;1.70;;
11283;SDS011;5698;47.332;11.180;2022-12-18T05:23:16;1.97;;;1.47;;
11283;SDS011;5698;47.332;11.180;2022-12-18T05:25:46;2.77;;;1.57;;
11283;SDS011;5698;47.332;11.180;2022-12-18T05:28:15;2.13;;;1.47;;
11283;SDS011;5698;47.332;11.180;2022-12-18T05:30:42;2.17;;;1.50;;
11283;SDS011;5698;47.332;11.180;2022-12-18T05:33:10;1.93;;;1.40;;
11283;SDS011;5698;47.332;11.180;2022-12-18T05:35:37;3.70;;;1.60;;
11283;SDS011;5698;47.332;11.180;2022-12-18T05:38:04;2.50;;;1.60;;
11283;SDS011;5698;47.332;11.180;2022-12-18T05:40:31;2.43;;;1.40;;
11283;SDS011;5698;47.332;11.180;2022-12-18T05:42:58;3.70;;;1.53;;
11283;SDS011;5698;47.332;11.180;2022-12-18T05:45:27;1.73;;;1.63;;
11283;SDS011;5698;47.332;11.180;2022-12-18T05:47:54;1.40;;;1.30;;
11283;SDS011;5698;47.332;11.180;2022-12-18T05:50:21;3.30;;;1.47;;
11283;SDS011;5698;47.332;11.180;2022-12-18T05:52:48;1.40;;;1.30;;
11283;SDS011;5698;47.332;11.180;2022-12-18T05:55:15;2.07;;;1.20;;
11283;SDS011;5698;47.332;11.180;2022-12-18T05:57:42;1.70;;;1.30;;
11283;SDS011;5698;47.332;11.180;2022-12-18T06:00:11;1.20;;;1.10;;
11283;SDS011;5698;47.332;11.180;2022-12-18T06:02:40;1.57;;;1.40;;
11283;SDS011;5698;47.332;11.180;2022-12-18T06:05:07;1.57;;;1.40;;
11283;SDS011;5698;47.332;11.180;2022-12-18T06:07:35;1.30;;;1.20;;
11283;SDS011;5698;47.332;11.180;2022-12-18T06:10:03;1.90;;;1.40;;
11283;SDS011;5698;47.332;11.180;2022-12-18T06:12:30;1.37;;;1.20;;
11283;SDS011;5698;47.332;11.180;2022-12-18T06:14:58;1.90;;;1.20;;
11283;SDS011;5698;47.332;11.180;2022-12-18T06:17:27;2.80;;;1.10;;
11283;SDS011;5698;47.332;11.180;2022-12-18T06:19:56;1.37;;;1.27;;
11283;SDS011;5698;47.332;11.180;2022-12-18T06:22:23;1.50;;;1.40;;
11283;SDS011;5698;47.332;11.180;2022-12-18T06:24:51;2.10;;;1.50;;
11283;SDS011;5698;47.332;11.180;2022-12-18T06:27:18;1.90;;;1.30;;
11283;SDS011;5698;47.332;11.180;2022-12-18T06:29:45;2.60;;;1.40;;
11283;SDS011;5698;47.332;11.180;2022-12-18T06:32:12;1.37;;;1.20;;
11283;SDS011;5698;47.332;11.180;2022-12-18T06:34:40;1.43;;;1.27;;
11283;SDS011;5698;47.332;11.180;2022-12-18T06:37:08;1.77;;;1.33;;
11283;SDS011;5698;47.332;11.180;2022-12-18T06:39:35;1.60;;;1.20;;
11283;SDS011;5698;47.332;11.180;2022-12-18T06:42:02;1.50;;;1.30;;
11283;SDS011;5698;47.332;11.180;2022-12-18T06:44:30;2.43;;;1.40;;
11283;SDS011;5698;47.332;11.180;2022-12-18T06:46:57;2.00;;;1.20;;
11283;SDS011;5698;47.332;11.180;2022-12-18T06:49:24;1.77;;;1.40;;
11283;SDS011;5698;47.332;11.180;2022-12-18T06:51:51;1.57;;;0.90;;
11283;SDS011;5698;47.332;11.180;2022-12-18T06:54:20;1.00;;;0.90;;
11283;SDS011;5698;47.332;11.180;2022-12-18T06:56:47;1.50;;;1.30;;
11283;SDS011;5698;47.332;11.180;2022-12-18T06:59:14;1.73;;;1.63;;
11283;SDS011;5698;47.332;11.180;2022-12-18T07:01:43;4.57;;;3.30;;
11283;SDS011;5698;47.332;11.180;2022-12-18T07:04:10;3.27;;;1.30;;
11283;SDS011;5698;47.332;11.180;2022-12-18T07:06:37;1.30;;;1.20;;
11283;SDS011;5698;47.332;11.180;2022-12-18T07:09:05;3.67;;;1.37;;
11283;SDS011;5698;47.332;11.180;2022-12-18T07:11:33;1.60;;;1.10;;
11283;SDS011;5698;47.332;11.180;2022-12-18T07:14:01;1.27;;;1.07;;
11283;SDS011;5698;47.332;11.180;2022-12-18T07:16:28;1.80;;;1.00;;
11283;SDS011;5698;47.332;11.180;2022-12-18T07:18:55;1.33;;;1.17;;
11283;SDS011;5698;47.332;11.180;2022-12-18T07:21:23;2.50;;;1.27;;
11283;SDS011;5698;47.332;11.180;2022-12-18T07:24:09;1.10;;;1.00;;
11283;SDS011;5698;47.332;11.180;2022-12-18T07:29:27;1.10;;;1.00;;
11283;SDS011;5698;47.332;11.180;2022-12-18T07:31:55;1.33;;;0.97;;
11283;SDS011;5698;47.332;11.180;2022-12-18T07:34:22;1.07;;;0.97;;
11283;SDS011;5698;47.332;11.180;2022-12-18T07:36:48;1.20;;;1.10;;
11283;SDS011;5698;47.332;11.180;2022-12-18T07:39:15;1.07;;;0.90;;
11283;SDS011;5698;47.332;11.180;2022-12-18T07:41:43;1.90;;;0.90;;
11283;SDS011;5698;47.332;11.180;2022-12-18T07:44:31;1.00;;;0.90;;
11283;SDS011;5698;47.332;11.180;2022-12-18T07:46:58;1.07;;;0.97;;
11283;SDS011;5698;47.332;11.180;2022-12-18T07:49:27;2.17;;;1.10;;
11283;SDS011;5698;47.332;11.180;2022-12-18T07:51:54;0.70;;;0.70;;
11283;SDS011;5698;47.332;11.180;2022-12-18T07:54:22;1.77;;;1.60;;
11283;SDS011;5698;47.332;11.180;2022-12-18T07:56:49;4.50;;;4.17;;
11283;SDS011;5698;47.332;11.180;2022-12-18T07:59:16;2.30;;;2.10;;
11283;SDS011;5698;47.332;11.180;2022-12-18T08:01:45;1.70;;;1.60;;
11283;SDS011;5698;47.332;11.180;2022-12-18T08:04:12;1.73;;;1.50;;
11283;SDS011;5698;47.332;11.180;2022-12-18T08:06:44;1.10;;;0.90;;
11283;SDS011;5698;47.332;11.180;2022-12-18T08:09:12;1.27;;;1.17;;
11283;SDS011;5698;47.332;11.180;2022-12-18T08:11:39;3.23;;;1.93;;
11283;SDS011;5698;47.332;11.180;2022-12-18T08:14:06;3.57;;;2.33;;
11283;SDS011;5698;47.332;11.180;2022-12-18T08:16:33;2.97;;;1.53;;
11283;SDS011;5698;47.332;11.180;2022-12-18T08:19:02;3.00;;;1.90;;
11283;SDS011;5698;47.332;11.180;2022-12-18T08:21:30;2.33;;;2.13;;
11283;SDS011;5698;47.332;11.180;2022-12-18T08:23:59;3.33;;;1.80;;
11283;SDS011;5698;47.332;11.180;2022-12-18T08:26:27;2.97;;;1.70;;
11283;SDS011;5698;47.332;11.180;2022-12-18T08:28:56;1.20;;;1.10;;
11283;SDS011;5698;47.332;11.180;2022-12-18T08:31:25;1.53;;;1.33;;
11283;SDS011;5698;47.332;11.180;2022-12-18T08:33:53;1.30;;;1.10;;
11283;SDS011;5698;47.332;11.180;2022-12-18T08:36:22;1.70;;;1.57;;
11283;SDS011;5698;47.332;11.180;2022-12-18T08:38:50;1.53;;;1.43;;
11283;SDS011;5698;47.332;11.180;2022-12-18T08:41:18;2.03;;;1.80;;
11283;SDS011;5698;47.332;11.180;2022-12-18T08:43:45;2.57;;;2.37;;
11283;SDS011;5698;47.332;11.180;2022-12-18T08:46:32;2.73;;;2.53;;
11283;SDS011;5698;47.332;11.180;2022-12-18T08:49:01;2.40;;;2.20;;
11283;SDS011;5698;47.332;11.180;2022-12-18T08:51:30;2.80;;;2.40;;
11283;SDS011;5698;47.332;11.180;2022-12-18T08:53:57;2.83;;;1.50;;
11283;SDS011;5698;47.332;11.180;2022-12-18T08:56:24;2.00;;;1.80;;
11283;SDS011;5698;47.332;11.180;2022-12-18T08:58:51;2.50;;;2.30;;
11283;SDS011;5698;47.332;11.180;2022-12-18T09:01:19;2.17;;;1.50;;
11283;SDS011;5698;47.332;11.180;2022-12-18T09:03:47;1.43;;;1.00;;
11283;SDS011;5698;47.332;11.180;2022-12-18T09:06:14;1.47;;;1.30;;
11283;SDS011;5698;47.332;11.180;2022-12-18T09:08:44;1.43;;;1.33;;
11283;SDS011;5698;47.332;11.180;2022-12-18T09:11:12;1.50;;;1.10;;
11283;SDS011;5698;47.332;11.180;2022-12-18T09:13:41;2.17;;;1.50;;
11283;SDS011;5698;47.332;11.180;2022-12-18T09:16:08;1.50;;;1.40;;
11283;SDS011;5698;47.332;11.180;2022-12-18T09:18:35;1.10;;;1.00;;
11283;SDS011;5698;47.332;11.180;2022-12-18T09:21:07;1.30;;;1.20;;
11283;SDS011;5698;47.332;11.180;2022-12-18T09:23:35;2.20;;;1.23;;
11283;SDS011;5698;47.332;11.180;2022-12-18T09:26:03;1.43;;;1.00;;
11283;SDS011;5698;47.332;11.180;2022-12-18T09:28:31;0.90;;;0.80;;
11283;SDS011;5698;47.332;11.180;2022-12-18T09:30:58;1.47;;;0.90;;
11283;SDS011;5698;47.332;11.180;2022-12-18T09:33:25;1.50;;;1.40;;
11283;SDS011;5698;47.332;11.180;2022-12-18T09:35:52;1.27;;;0.90;;
11283;SDS011;5698;47.332;11.180;2022-12-18T09:38:19;1.20;;;1.10;;
11283;SDS011;5698;47.332;11.180;2022-12-18T09:40:48;1.27;;;1.10;;
11283;SDS011;5698;47.332;11.180;2022-12-18T09:43:20;1.03;;;0.93;;
11283;SDS011;5698;47.332;11.180;2022-12-18T09:45:53;2.50;;;0.90;;
11283;SDS011;5698;47.332;11.180;2022-12-18T09:48:26;1.10;;;0.87;;
11283;SDS011;5698;47.332;11.180;2022-12-18T09:50:58;1.00;;;0.90;;
11283;SDS011;5698;47.332;11.180;2022-12-18T09:53:30;0.80;;;0.80;;
11283;SDS011;5698;47.332;11.180;2022-12-18T09:56:01;2.13;;;0.90;;
11283;SDS011;5698;47.332;11.180;2022-12-18T09:58:33;1.10;;;1.00;;
11283;SDS011;5698;47.332;11.180;2022-12-18T10:01:09;1.20;;;0.80;;
11283;SDS011;5698;47.332;11.180;2022-12-18T10:03:37;0.63;;;0.63;;
11283;SDS011;5698;47.332;11.180;2022-12-18T10:06:05;0.87;;;0.80;;
11283;SDS011;5698;47.332;11.180;2022-12-18T10:08:39;1.00;;;0.77;;
11283;SDS011;5698;47.332;11.180;2022-12-18T10:11:17;1.10;;;0.90;;
11283;SDS011;5698;47.332;11.180;2022-12-18T10:13:53;1.73;;;1.23;;
11283;SDS011;5698;47.332;11.180;2022-12-18T10:16:27;2.23;;;1.73;;
11283;SDS011;5698;47.332;11.180;2022-12-18T10:21:51;2.57;;;1.43;;
11283;SDS011;5698;47.332;11.180;2022-12-18T10:24:27;1.27;;;1.17;;
11283;SDS011;5698;47.332;11.180;2022-12-18T10:27:06;1.47;;;1.30;;
11283;SDS011;5698;47.332;11.180;2022-12-18T10:29:41;1.60;;;1.00;;
11283;SDS011;5698;47.332;11.180;2022-12-18T10:32:12;2.50;;;1.30;;
11283;SDS011;5698;47.332;11.180;2022-12-18T10:34:44;1.00;;;0.90;;
11283;SDS011;5698;47.332;11.180;2022-12-18T10:37:14;0.70;;;0.70;;
11283;SDS011;5698;47.332;11.180;2022-12-18T10:39:43;1.23;;;0.80;;
11283;SDS011;5698;47.332;11.180;2022-12-18T10:42:11;1.37;;;1.00;;
11283;SDS011;5698;47.332;11.180;2022-12-18T10:44:45;2.30;;;0.90;;
11283;SDS011;5698;47.332;11.180;2022-12-18T10:47:27;1.20;;;1.00;;
11283;SDS011;5698;47.332;11.180;2022-12-18T10:49:54;2.30;;;1.40;;
11283;SDS011;5698;47.332;11.180;2022-12-18T10:52:21;1.53;;;1.23;;
11283;SDS011;5698;47.332;11.180;2022-12-18T10:54:51;1.43;;;0.87;;
11283;SDS011;5698;47.332;11.180;2022-12-18T10:57:32;1.07;;;1.00;;
11283;SDS011;5698;47.332;11.180;2022-12-18T11:00:13;0.80;;;0.80;;
11283;SDS011;5698;47.332;11.180;2022-12-18T11:02:48;1.30;;;0.90;;
11283;SDS011;5698;47.332;11.180;2022-12-18T11:05:23;1.63;;;0.80;;
11283;SDS011;5698;47.332;11.180;2022-12-18T11:07:52;0.90;;;0.90;;
11283;SDS011;5698;47.332;11.180;2022-12-18T11:10:20;1.00;;;0.90;;
11283;SDS011;5698;47.332;11.180;2022-12-18T11:12:48;1.97;;;0.80;;
11283;SDS011;5698;47.332;11.180;2022-12-18T11:15:19;1.97;;;0.80;;
11283;SDS011;5698;47.332;11.180;2022-12-18T11:17:47;1.23;;;0.73;;
11283;SDS011;5698;47.332;11.180;2022-12-18T11:20:20;0.93;;;0.90;;
11283;SDS011;5698;47.332;11.180;2022-12-18T11:22:58;0.70;;;0.70;;
11283;SDS011;5698;47.332;11.180;2022-12-18T11:25:26;2.50;;;0.93;;
11283;SDS011;5698;47.332;11.180;2022-12-18T11:27:56;0.70;;;0.60;;
11283;SDS011;5698;47.332;11.180;2022-12-18T11:30:28;1.20;;;0.80;;
11283;SDS011;5698;47.332;11.180;2022-12-18T11:32:56;0.80;;;0.80;;
11283;SDS011;5698;47.332;11.180;2022-12-18T11:35:42;1.00;;;0.70;;
11283;SDS011;5698;47.332;11.180;2022-12-18T11:38:17;0.70;;;0.70;;
11283;SDS011;5698;47.332;11.180;2022-12-18T11:40:50;1.10;;;0.97;;
11283;SDS011;5698;47.332;11.180;2022-12-18T11:43:22;1.10;;;1.00;;
11283;SDS011;5698;47.332;11.180;2022-12-18T11:45:55;1.90;;;1.00;;
11283;SDS011;5698;47.332;11.180;2022-12-18T11:48:27;1.10;;;1.00;;
11283;SDS011;5698;47.332;11.180;2022-12-18T11:50:56;1.13;;;1.03;;
11283;SDS011;5698;47.332;11.180;2022-12-18T11:53:26;0.70;;;0.70;;
11283;SDS011;5698;47.332;11.180;2022-12-18T11:56:00;0.93;;;0.70;;
11283;SDS011;5698;47.332;11.180;2022-12-18T11:58:47;1.00;;;0.80;;
11283;SDS011;5698;47.332;11.180;2022-12-18T12:01:28;0.80;;;0.80;;
11283;SDS011;5698;47.332;11.180;2022-12-18T12:04:08;0.97;;;0.80;;
11283;SDS011;5698;47.332;11.180;2022-12-18T12:06:47;0.77;;;0.77;;
11283;SDS011;5698;47.332;11.180;2022-12-18T12:09:21;1.67;;;0.90;;
11283;SDS011;5698;47.332;11.180;2022-12-18T12:12:00;0.80;;;0.80;;
11283;SDS011;5698;47.332;11.180;2022-12-18T12:14:41;1.57;;;0.80;;
11283;SDS011;5698;47.332;11.180;2022-12-18T12:17:19;1.77;;;0.70;;
11283;SDS011;5698;47.332;11.180;2022-12-18T12:19:53;1.17;;;0.87;;
11283;SDS011;5698;47.332;11.180;2022-12-18T12:22:28;1.00;;;0.70;;
11283;SDS011;5698;47.332;11.180;2022-12-18T12:25:14;2.03;;;1.00;;
11283;SDS011;5698;47.332;11.180;2022-12-18T12:27:54;0.80;;;0.80;;
11283;SDS011;5698;47.332;11.180;2022-12-18T12:30:30;2.77;;;1.27;;
11283;SDS011;5698;47.332;11.180;2022-12-18T12:33:11;1.13;;;0.90;;
11283;SDS011;5698;47.332;11.180;2022-12-18T12:35:51;2.90;;;1.17;;
11283;SDS011;5698;47.332;11.180;2022-12-18T12:38:25;1.27;;;1.00;;
11283;SDS011;5698;47.332;11.180;2022-12-18T12:40:56;1.20;;;0.90;;
11283;SDS011;5698;47.332;11.180;2022-12-18T12:43:31;2.30;;;0.90;;
11283;SDS011;5698;47.332;11.180;2022-12-18T12:46:05;1.53;;;0.90;;
11283;SDS011;5698;47.332;11.180;2022-12-18T12:48:36;1.10;;;1.00;;
11283;SDS011;5698;47.332;11.180;2022-12-18T12:51:09;1.23;;;1.00;;
11283;SDS011;5698;47.332;11.180;2022-12-18T12:53:40;1.47;;;1.07;;
11283;SDS011;5698;47.332;11.180;2022-12-18T12:56:08;1.23;;;0.80;;
11283;SDS011;5698;47.332;11.180;2022-12-18T12:58:40;2.60;;;1.00;;
11283;SDS011;5698;47.332;11.180;2022-12-18T13:01:17;1.70;;;1.20;;
11283;SDS011;5698;47.332;11.180;2022-12-18T13:03:55;1.23;;;1.13;;
11283;SDS011;5698;47.332;11.180;2022-12-18T13:06:33;1.00;;;1.00;;
11283;SDS011;5698;47.332;11.180;2022-12-18T13:09:08;1.30;;;1.20;;
11283;SDS011;5698;47.332;11.180;2022-12-18T13:11:36;1.07;;;0.97;;
11283;SDS011;5698;47.332;11.180;2022-12-18T13:14:23;1.47;;;0.97;;
11283;SDS011;5698;47.332;11.180;2022-12-18T13:20:04;1.80;;;1.33;;
11283;SDS011;5698;47.332;11.180;2022-12-18T13:22:37;1.67;;;1.10;;
11283;SDS011;5698;47.332;11.180;2022-12-18T13:28:03;1.47;;;1.00;;
11283;SDS011;5698;47.332;11.180;2022-12-18T13:30:41;1.00;;;0.90;;
11283;SDS011;5698;47.332;11.180;2022-12-18T13:36:15;1.20;;;1.10;;
11283;SDS011;5698;47.332;11.180;2022-12-18T13:41:47;1.00;;;0.90;;
11283;SDS011;5698;47.332;11.180;2022-12-18T13:44:22;1.93;;;1.17;;
11283;SDS011;5698;47.332;11.180;2022-12-18T13:46:52;2.00;;;1.37;;
11283;SDS011;5698;47.332;11.180;2022-12-18T13:49:21;1.40;;;1.20;;
11283;SDS011;5698;47.332;11.180;2022-12-18T13:51:53;1.47;;;1.17;;
11283;SDS011;5698;47.332;11.180;2022-12-18T13:54:22;2.23;;;1.37;;
11283;SDS011;5698;47.332;11.180;2022-12-18T13:56:55;1.60;;;1.10;;
11283;SDS011;5698;47.332;11.180;2022-12-18T13:59:22;1.40;;;1.30;;
11283;SDS011;5698;47.332;11.180;2022-12-18T14:01:52;2.00;;;1.17;;
11283;SDS011;5698;47.332;11.180;2022-12-18T14:04:22;1.97;;;1.10;;
11283;SDS011;5698;47.332;11.180;2022-12-18T14:06:54;1.90;;;1.30;;
11283;SDS011;5698;47.332;11.180;2022-12-18T14:09:25;1.40;;;1.30;;
11283;SDS011;5698;47.332;11.180;2022-12-18T14:11:54;1.43;;;1.10;;
11283;SDS011;5698;47.332;11.180;2022-12-18T14:14:44;1.30;;;1.00;;
11283;SDS011;5698;47.332;11.180;2022-12-18T14:17:13;1.17;;;1.07;;
11283;SDS011;5698;47.332;11.180;2022-12-18T14:19:42;1.20;;;1.10;;
11283;SDS011;5698;47.332;11.180;2022-12-18T14:22:16;2.90;;;1.03;;
11283;SDS011;5698;47.332;11.180;2022-12-18T14:24:44;1.33;;;1.03;;
11283;SDS011;5698;47.332;11.180;2022-12-18T14:27:22;1.43;;;1.03;;
11283;SDS011;5698;47.332;11.180;2022-12-18T14:29:50;1.77;;;0.90;;
11283;SDS011;5698;47.332;11.180;2022-12-18T14:32:18;2.03;;;1.30;;
11283;SDS011;5698;47.332;11.180;2022-12-18T14:34:48;1.40;;;1.03;;
11283;SDS011;5698;47.332;11.180;2022-12-18T14:37:20;2.03;;;1.40;;
11283;SDS011;5698;47.332;11.180;2022-12-18T14:39:53;1.40;;;1.30;;
11283;SDS011;5698;47.332;11.180;2022-12-18T14:42:21;1.47;;;1.10;;
11283;SDS011;5698;47.332;11.180;2022-12-18T14:47:52;1.97;;;1.20;;
11283;SDS011;5698;47.332;11.180;2022-12-18T14:50:19;1.67;;;1.30;;
11283;SDS011;5698;47.332;11.180;2022-12-18T14:52:47;1.90;;;1.00;;
11283;SDS011;5698;47.332;11.180;2022-12-18T14:55:15;1.37;;;1.27;;
11283;SDS011;5698;47.332;11.180;2022-12-18T14:57:43;1.50;;;1.00;;
11283;SDS011;5698;47.332;11.180;2022-12-18T15:00:14;0.80;;;0.80;;
11283;SDS011;5698;47.332;11.180;2022-12-18T15:02:44;1.00;;;0.80;;
11283;SDS011;5698;47.332;11.180;2022-12-18T15:05:16;1.00;;;0.90;;
11283;SDS011;5698;47.332;11.180;2022-12-18T15:07:48;1.97;;;1.00;;
11283;SDS011;5698;47.332;11.180;2022-12-18T15:10:18;1.20;;;1.10;;
11283;SDS011;5698;47.332;11.180;2022-12-18T15:12:46;1.07;;;0.93;;
11283;SDS011;5698;47.332;11.180;2022-12-18T15:18:11;1.50;;;1.07;;
11283;SDS011;5698;47.332;11.180;2022-12-18T15:20:42;0.83;;;0.80;;
11283;SDS011;5698;47.332;11.180;2022-12-18T15:23:16;1.17;;;1.07;;
11283;SDS011;5698;47.332;11.180;2022-12-18T15:25:46;1.40;;;1.00;;
11283;SDS011;5698;47.332;11.180;2022-12-18T15:28:21;1.10;;;1.00;;
11283;SDS011;5698;47.332;11.180;2022-12-18T15:31:00;2.57;;;2.10;;